sensor_id;sensor_type;location;lat;lon;timestamp;temperature;humidity
19403;DHT22;9837;48.888;8.998;2023-06-24T00:04:34;23.00;51.50
19403;DHT22;9837;48.888;8.998;2023-06-24T00:09:27;22.90;51.40
19403;DHT22;9837;48.888;8.998;2023-06-24T00:11:56;22.90;51.80
19403;DHT22;9837;48.888;8.998;2023-06-24T00:14:22;22.90;51.90
19403;DHT22;9837;48.888;8.998;2023-06-24T00:16:53;22.80;51.40
19403;DHT22;9837;48.888;8.998;2023-06-24T00:19:20;22.90;51.70
19403;DHT22;9837;48.888;8.998;2023-06-24T00:21:49;22.70;51.70
19403;DHT22;9837;48.888;8.998;2023-06-24T00:24:21;22.70;51.70
19403;DHT22;9837;48.888;8.998;2023-06-24T00:26:51;22.70;52.00
19403;DHT22;9837;48.888;8.998;2023-06-24T00:29:17;22.70;51.70
19403;DHT22;9837;48.888;8.998;2023-06-24T00:31:43;22.50;51.20
19403;DHT22;9837;48.888;8.998;2023-06-24T00:36:34;22.50;50.70
19403;DHT22;9837;48.888;8.998;2023-06-24T00:39:04;22.50;50.70
19403;DHT22;9837;48.888;8.998;2023-06-24T00:48:53;22.40;51.00
19403;DHT22;9837;48.888;8.998;2023-06-24T00:51:19;22.50;51.00
19403;DHT22;9837;48.888;8.998;2023-06-24T00:53:47;22.50;51.20
19403;DHT22;9837;48.888;8.998;2023-06-24T00:56:13;22.50;51.20
19403;DHT22;9837;48.888;8.998;2023-06-24T00:58:42;22.50;51.20
19403;DHT22;9837;48.888;8.998;2023-06-24T01:01:09;22.50;51.10
19403;DHT22;9837;48.888;8.998;2023-06-24T01:03:36;22.40;51.10
19403;DHT22;9837;48.888;8.998;2023-06-24T01:06:02;22.50;51.30
19403;DHT22;9837;48.888;8.998;2023-06-24T01:08:28;22.50;50.70
19403;DHT22;9837;48.888;8.998;2023-06-24T01:13:20;22.50;51.00
19403;DHT22;9837;48.888;8.998;2023-06-24T01:37:14;22.00;52.10
19403;DHT22;9837;48.888;8.998;2023-06-24T01:39:52;22.10;51.90
19403;DHT22;9837;48.888;8.998;2023-06-24T01:42:21;22.10;51.80
19403;DHT22;9837;48.888;8.998;2023-06-24T01:44:49;22.20;51.90
19403;DHT22;9837;48.888;8.998;2023-06-24T01:47:20;22.30;51.60
19403;DHT22;9837;48.888;8.998;2023-06-24T01:49:47;22.30;51.50
19403;DHT22;9837;48.888;8.998;2023-06-24T01:52:14;22.30;51.60
19403;DHT22;9837;48.888;8.998;2023-06-24T01:54:41;22.30;51.70
19403;DHT22;9837;48.888;8.998;2023-06-24T01:57:10;22.20;51.70
19403;DHT22;9837;48.888;8.998;2023-06-24T01:59:42;22.10;52.00
19403;DHT22;9837;48.888;8.998;2023-06-24T02:02:10;22.10;52.10
19403;DHT22;9837;48.888;8.998;2023-06-24T02:04:36;22.20;52.20
19403;DHT22;9837;48.888;8.998;2023-06-24T02:07:03;22.20;51.80
19403;DHT22;9837;48.888;8.998;2023-06-24T02:09:31;22.20;51.90
19403;DHT22;9837;48.888;8.998;2023-06-24T02:11:58;22.20;51.90
19403;DHT22;9837;48.888;8.998;2023-06-24T02:14:26;22.20;52.00
19403;DHT22;9837;48.888;8.998;2023-06-24T02:16:54;22.20;52.10
19403;DHT22;9837;48.888;8.998;2023-06-24T02:19:22;22.20;52.40
19403;DHT22;9837;48.888;8.998;2023-06-24T02:21:50;22.10;52.10
19403;DHT22;9837;48.888;8.998;2023-06-24T02:24:18;22.10;52.30
19403;DHT22;9837;48.888;8.998;2023-06-24T02:26:45;22.00;52.70
19403;DHT22;9837;48.888;8.998;2023-06-24T02:29:12;21.90;53.10
19403;DHT22;9837;48.888;8.998;2023-06-24T02:31:38;21.60;53.50
19403;DHT22;9837;48.888;8.998;2023-06-24T02:34:04;21.50;54.00
19403;DHT22;9837;48.888;8.998;2023-06-24T02:36:30;21.50;54.20
19403;DHT22;9837;48.888;8.998;2023-06-24T02:38:55;21.60;54.00
19403;DHT22;9837;48.888;8.998;2023-06-24T02:41:21;21.60;53.90
19403;DHT22;9837;48.888;8.998;2023-06-24T02:43:46;21.50;53.90
19403;DHT22;9837;48.888;8.998;2023-06-24T02:46:12;21.40;54.30
19403;DHT22;9837;48.888;8.998;2023-06-24T02:48:39;21.40;54.30
19403;DHT22;9837;48.888;8.998;2023-06-24T02:51:07;21.40;54.50
19403;DHT22;9837;48.888;8.998;2023-06-24T02:53:36;21.30;54.60
19403;DHT22;9837;48.888;8.998;2023-06-24T02:56:04;21.30;54.80
19403;DHT22;9837;48.888;8.998;2023-06-24T02:58:31;21.20;54.70
19403;DHT22;9837;48.888;8.998;2023-06-24T03:01:00;21.20;54.80
19403;DHT22;9837;48.888;8.998;2023-06-24T03:03:28;21.00;55.00
19403;DHT22;9837;48.888;8.998;2023-06-24T03:05:54;21.10;54.90
19403;DHT22;9837;48.888;8.998;2023-06-24T03:13:13;21.30;54.70
19403;DHT22;9837;48.888;8.998;2023-06-24T03:15:39;21.20;54.60
19403;DHT22;9837;48.888;8.998;2023-06-24T03:18:06;21.20;54.60
19403;DHT22;9837;48.888;8.998;2023-06-24T03:20:31;21.20;54.70
19403;DHT22;9837;48.888;8.998;2023-06-24T03:23:06;21.20;54.60
19403;DHT22;9837;48.888;8.998;2023-06-24T03:25:33;21.30;54.50
19403;DHT22;9837;48.888;8.998;2023-06-24T03:30:26;21.30;54.50
19403;DHT22;9837;48.888;8.998;2023-06-24T03:35:18;21.30;54.60
19403;DHT22;9837;48.888;8.998;2023-06-24T03:37:43;21.30;54.70
19403;DHT22;9837;48.888;8.998;2023-06-24T03:40:09;21.20;54.80
19403;DHT22;9837;48.888;8.998;2023-06-24T03:42:35;21.20;54.80
19403;DHT22;9837;48.888;8.998;2023-06-24T03:45:02;21.20;55.00
19403;DHT22;9837;48.888;8.998;2023-06-24T03:47:28;21.20;54.80
19403;DHT22;9837;48.888;8.998;2023-06-24T03:57:12;21.40;54.90
19403;DHT22;9837;48.888;8.998;2023-06-24T04:02:05;21.10;55.20
19403;DHT22;9837;48.888;8.998;2023-06-24T04:04:34;21.00;55.50
19403;DHT22;9837;48.888;8.998;2023-06-24T04:06:59;21.30;55.50
19403;DHT22;9837;48.888;8.998;2023-06-24T04:09:25;21.40;54.80
19403;DHT22;9837;48.888;8.998;2023-06-24T04:11:50;21.40;54.90
19403;DHT22;9837;48.888;8.998;2023-06-24T04:19:08;20.90;56.30
19403;DHT22;9837;48.888;8.998;2023-06-24T04:21:33;21.00;56.20
19403;DHT22;9837;48.888;8.998;2023-06-24T04:23:59;21.30;56.20
19403;DHT22;9837;48.888;8.998;2023-06-24T04:26:24;21.50;55.60
19403;DHT22;9837;48.888;8.998;2023-06-24T04:28:50;21.70;55.50
19403;DHT22;9837;48.888;8.998;2023-06-24T04:33:42;22.10;54.40
19403;DHT22;9837;48.888;8.998;2023-06-24T04:36:07;22.20;54.10
19403;DHT22;9837;48.888;8.998;2023-06-24T04:43:26;22.50;53.80
19403;DHT22;9837;48.888;8.998;2023-06-24T04:45:53;22.80;53.30
19403;DHT22;9837;48.888;8.998;2023-06-24T04:48:20;23.40;52.10
19403;DHT22;9837;48.888;8.998;2023-06-24T04:50:46;24.10;51.00
19403;DHT22;9837;48.888;8.998;2023-06-24T04:55:38;26.00;47.10
19403;DHT22;9837;48.888;8.998;2023-06-24T05:00:29;27.70;43.70
19403;DHT22;9837;48.888;8.998;2023-06-24T05:02:55;28.20;42.40
19403;DHT22;9837;48.888;8.998;2023-06-24T05:07:46;29.20;41.30
19403;DHT22;9837;48.888;8.998;2023-06-24T05:15:04;30.80;38.20
19403;DHT22;9837;48.888;8.998;2023-06-24T05:17:30;31.40;37.50
19403;DHT22;9837;48.888;8.998;2023-06-24T05:24:47;32.20;37.00
19403;DHT22;9837;48.888;8.998;2023-06-24T05:27:13;32.50;35.90
19403;DHT22;9837;48.888;8.998;2023-06-24T05:29:38;33.00;35.60
19403;DHT22;9837;48.888;8.998;2023-06-24T05:32:04;33.60;34.70
19403;DHT22;9837;48.888;8.998;2023-06-24T05:34:30;34.10;33.70
19403;DHT22;9837;48.888;8.998;2023-06-24T05:36:56;34.40;33.40
19403;DHT22;9837;48.888;8.998;2023-06-24T05:39:22;34.60;32.90
19403;DHT22;9837;48.888;8.998;2023-06-24T05:44:14;35.10;32.20
19403;DHT22;9837;48.888;8.998;2023-06-24T05:53:57;36.00;30.90
19403;DHT22;9837;48.888;8.998;2023-06-24T05:56:23;36.20;30.60
19403;DHT22;9837;48.888;8.998;2023-06-24T05:58:49;36.10;30.00
19403;DHT22;9837;48.888;8.998;2023-06-24T06:01:14;36.30;30.20
19403;DHT22;9837;48.888;8.998;2023-06-24T06:03:40;36.00;30.00
19403;DHT22;9837;48.888;8.998;2023-06-24T06:06:06;36.20;30.20
19403;DHT22;9837;48.888;8.998;2023-06-24T06:08:32;36.90;29.40
19403;DHT22;9837;48.888;8.998;2023-06-24T06:10:59;37.10;28.90
19403;DHT22;9837;48.888;8.998;2023-06-24T06:13:24;37.50;28.80
19403;DHT22;9837;48.888;8.998;2023-06-24T06:15:50;37.70;28.40
19403;DHT22;9837;48.888;8.998;2023-06-24T06:18:15;37.30;28.30
19403;DHT22;9837;48.888;8.998;2023-06-24T06:20:41;37.20;28.50
19403;DHT22;9837;48.888;8.998;2023-06-24T06:23:07;36.80;28.90
19403;DHT22;9837;48.888;8.998;2023-06-24T06:25:32;37.00;29.30
19403;DHT22;9837;48.888;8.998;2023-06-24T06:27:58;37.60;28.60
19403;DHT22;9837;48.888;8.998;2023-06-24T06:30:23;37.80;28.00
19403;DHT22;9837;48.888;8.998;2023-06-24T06:35:15;38.20;27.60
19403;DHT22;9837;48.888;8.998;2023-06-24T06:40:07;38.10;27.90
19403;DHT22;9837;48.888;8.998;2023-06-24T06:42:32;37.60;28.00
19403;DHT22;9837;48.888;8.998;2023-06-24T06:44:58;37.20;28.30
19403;DHT22;9837;48.888;8.998;2023-06-24T06:47:23;37.30;28.00
19403;DHT22;9837;48.888;8.998;2023-06-24T06:49:49;37.20;28.30
19403;DHT22;9837;48.888;8.998;2023-06-24T06:52:14;36.80;28.50
19403;DHT22;9837;48.888;8.998;2023-06-24T06:57:06;37.50;28.80
19403;DHT22;9837;48.888;8.998;2023-06-24T06:59:32;37.90;29.20
19403;DHT22;9837;48.888;8.998;2023-06-24T07:01:58;38.30;28.50
19403;DHT22;9837;48.888;8.998;2023-06-24T07:06:49;37.50;27.90
19403;DHT22;9837;48.888;8.998;2023-06-24T07:09:15;36.30;29.30
19403;DHT22;9837;48.888;8.998;2023-06-24T07:11:42;34.90;30.10
19403;DHT22;9837;48.888;8.998;2023-06-24T07:14:08;33.50;31.30
19403;DHT22;9837;48.888;8.998;2023-06-24T07:16:33;32.70;33.40
19403;DHT22;9837;48.888;8.998;2023-06-24T07:18:59;31.90;34.10
19403;DHT22;9837;48.888;8.998;2023-06-24T07:21:25;31.70;34.80
19403;DHT22;9837;48.888;8.998;2023-06-24T07:23:50;31.40;35.50
19403;DHT22;9837;48.888;8.998;2023-06-24T07:26:16;31.50;36.00
19403;DHT22;9837;48.888;8.998;2023-06-24T07:28:41;31.80;35.10
19403;DHT22;9837;48.888;8.998;2023-06-24T07:31:07;32.00;35.00
19403;DHT22;9837;48.888;8.998;2023-06-24T07:35:59;30.90;35.10
19403;DHT22;9837;48.888;8.998;2023-06-24T07:38:24;30.60;35.00
19403;DHT22;9837;48.888;8.998;2023-06-24T07:40:50;30.70;35.70
19403;DHT22;9837;48.888;8.998;2023-06-24T07:45:41;30.60;35.80
19403;DHT22;9837;48.888;8.998;2023-06-24T07:50:33;30.50;35.80
19403;DHT22;9837;48.888;8.998;2023-06-24T07:52:59;30.40;35.80
19403;DHT22;9837;48.888;8.998;2023-06-24T07:55:25;30.30;36.00
19403;DHT22;9837;48.888;8.998;2023-06-24T07:57:51;30.50;36.50
19403;DHT22;9837;48.888;8.998;2023-06-24T08:00:16;30.70;36.50
19403;DHT22;9837;48.888;8.998;2023-06-24T08:02:42;30.60;35.70
19403;DHT22;9837;48.888;8.998;2023-06-24T08:05:08;30.70;36.10
19403;DHT22;9837;48.888;8.998;2023-06-24T08:07:39;30.90;36.90
19403;DHT22;9837;48.888;8.998;2023-06-24T08:10:05;31.10;35.90
19403;DHT22;9837;48.888;8.998;2023-06-24T08:12:31;31.10;35.20
19403;DHT22;9837;48.888;8.998;2023-06-24T08:14:57;31.50;35.00
19403;DHT22;9837;48.888;8.998;2023-06-24T08:17:22;31.70;34.40
19403;DHT22;9837;48.888;8.998;2023-06-24T08:19:48;31.50;33.80
19403;DHT22;9837;48.888;8.998;2023-06-24T08:24:40;31.80;34.20
19403;DHT22;9837;48.888;8.998;2023-06-24T08:27:06;32.00;34.30
19403;DHT22;9837;48.888;8.998;2023-06-24T08:29:31;31.80;33.20
19403;DHT22;9837;48.888;8.998;2023-06-24T08:31:57;31.40;33.40
19403;DHT22;9837;48.888;8.998;2023-06-24T08:34:22;31.00;33.40
19403;DHT22;9837;48.888;8.998;2023-06-24T08:36:48;30.40;33.60
19403;DHT22;9837;48.888;8.998;2023-06-24T08:41:39;29.90;33.90
19403;DHT22;9837;48.888;8.998;2023-06-24T08:44:05;30.30;33.70
19403;DHT22;9837;48.888;8.998;2023-06-24T08:46:31;30.20;32.00
19403;DHT22;9837;48.888;8.998;2023-06-24T08:51:44;29.50;32.70
19403;DHT22;9837;48.888;8.998;2023-06-24T08:54:14;29.70;33.20
19403;DHT22;9837;48.888;8.998;2023-06-24T08:56:41;29.60;32.80
19403;DHT22;9837;48.888;8.998;2023-06-24T08:59:08;29.70;32.50
19403;DHT22;9837;48.888;8.998;2023-06-24T09:01:34;30.50;32.30
19403;DHT22;9837;48.888;8.998;2023-06-24T09:03:59;31.10;31.50
19403;DHT22;9837;48.888;8.998;2023-06-24T09:06:25;31.70;31.00
19403;DHT22;9837;48.888;8.998;2023-06-24T09:08:55;32.10;31.50
19403;DHT22;9837;48.888;8.998;2023-06-24T09:11:28;32.30;30.90
19403;DHT22;9837;48.888;8.998;2023-06-24T09:14:00;31.40;31.30
19403;DHT22;9837;48.888;8.998;2023-06-24T09:16:26;31.30;32.90
19403;DHT22;9837;48.888;8.998;2023-06-24T09:18:53;31.10;31.50
19403;DHT22;9837;48.888;8.998;2023-06-24T09:21:25;31.00;31.50
19403;DHT22;9837;48.888;8.998;2023-06-24T09:23:55;31.10;31.10
19403;DHT22;9837;48.888;8.998;2023-06-24T09:26:27;31.40;31.50
19403;DHT22;9837;48.888;8.998;2023-06-24T09:28:53;31.90;31.10
19403;DHT22;9837;48.888;8.998;2023-06-24T09:31:23;32.10;31.20
19403;DHT22;9837;48.888;8.998;2023-06-24T09:33:49;31.30;31.30
19403;DHT22;9837;48.888;8.998;2023-06-24T09:36:15;31.10;31.40
19403;DHT22;9837;48.888;8.998;2023-06-24T09:38:42;30.10;32.10
19403;DHT22;9837;48.888;8.998;2023-06-24T09:41:10;30.00;33.00
19403;DHT22;9837;48.888;8.998;2023-06-24T09:43:36;30.20;31.30
19403;DHT22;9837;48.888;8.998;2023-06-24T09:46:02;30.70;31.20
19403;DHT22;9837;48.888;8.998;2023-06-24T09:48:28;31.40;30.50
19403;DHT22;9837;48.888;8.998;2023-06-24T09:50:59;31.70;30.00
19403;DHT22;9837;48.888;8.998;2023-06-24T09:55:52;31.50;30.80
19403;DHT22;9837;48.888;8.998;2023-06-24T09:58:19;30.90;30.90
19403;DHT22;9837;48.888;8.998;2023-06-24T10:00:45;30.80;31.60
19403;DHT22;9837;48.888;8.998;2023-06-24T10:03:11;31.10;31.20
19403;DHT22;9837;48.888;8.998;2023-06-24T10:05:37;31.40;30.10
19403;DHT22;9837;48.888;8.998;2023-06-24T10:08:05;31.70;30.10
19403;DHT22;9837;48.888;8.998;2023-06-24T10:10:31;31.70;31.50
19403;DHT22;9837;48.888;8.998;2023-06-24T10:12:57;31.90;29.20
19403;DHT22;9837;48.888;8.998;2023-06-24T10:15:22;31.70;29.20
19403;DHT22;9837;48.888;8.998;2023-06-24T10:17:50;31.40;29.00
19403;DHT22;9837;48.888;8.998;2023-06-24T10:20:26;31.60;29.80
19403;DHT22;9837;48.888;8.998;2023-06-24T10:22:52;32.10;29.00
19403;DHT22;9837;48.888;8.998;2023-06-24T10:27:44;32.00;27.60
19403;DHT22;9837;48.888;8.998;2023-06-24T10:30:17;31.80;29.40
19403;DHT22;9837;48.888;8.998;2023-06-24T10:32:44;31.70;28.50
19403;DHT22;9837;48.888;8.998;2023-06-24T10:35:24;30.80;29.40
19403;DHT22;9837;48.888;8.998;2023-06-24T10:37:58;30.30;30.50
19403;DHT22;9837;48.888;8.998;2023-06-24T10:40:41;30.20;30.60
19403;DHT22;9837;48.888;8.998;2023-06-24T10:43:26;30.90;31.30
19403;DHT22;9837;48.888;8.998;2023-06-24T10:45:56;31.00;30.00
19403;DHT22;9837;48.888;8.998;2023-06-24T10:48:23;31.30;29.30
19403;DHT22;9837;48.888;8.998;2023-06-24T10:50:49;31.80;29.20
19403;DHT22;9837;48.888;8.998;2023-06-24T10:53:15;31.80;29.00
19403;DHT22;9837;48.888;8.998;2023-06-24T10:55:43;31.80;29.10
19403;DHT22;9837;48.888;8.998;2023-06-24T10:58:10;31.90;29.50
19403;DHT22;9837;48.888;8.998;2023-06-24T11:00:37;31.50;29.20
19403;DHT22;9837;48.888;8.998;2023-06-24T11:03:09;31.30;29.40
19403;DHT22;9837;48.888;8.998;2023-06-24T11:05:38;31.50;29.40
19403;DHT22;9837;48.888;8.998;2023-06-24T11:08:05;31.60;28.80
19403;DHT22;9837;48.888;8.998;2023-06-24T11:10:31;31.30;29.00
19403;DHT22;9837;48.888;8.998;2023-06-24T11:12:57;31.40;29.20
19403;DHT22;9837;48.888;8.998;2023-06-24T11:15:24;31.70;28.60
19403;DHT22;9837;48.888;8.998;2023-06-24T11:17:51;31.30;28.60
19403;DHT22;9837;48.888;8.998;2023-06-24T11:20:16;30.90;28.50
19403;DHT22;9837;48.888;8.998;2023-06-24T11:22:43;31.10;27.70
19403;DHT22;9837;48.888;8.998;2023-06-24T11:25:20;31.20;28.70
19403;DHT22;9837;48.888;8.998;2023-06-24T11:27:47;31.90;28.80
19403;DHT22;9837;48.888;8.998;2023-06-24T11:30:13;31.90;28.70
19403;DHT22;9837;48.888;8.998;2023-06-24T11:32:43;32.20;28.20
19403;DHT22;9837;48.888;8.998;2023-06-24T11:35:10;32.30;28.80
19403;DHT22;9837;48.888;8.998;2023-06-24T11:37:37;32.50;27.80
19403;DHT22;9837;48.888;8.998;2023-06-24T11:40:03;33.00;27.20
19403;DHT22;9837;48.888;8.998;2023-06-24T11:42:30;32.90;27.40
19403;DHT22;9837;48.888;8.998;2023-06-24T11:45:04;32.50;28.40
19403;DHT22;9837;48.888;8.998;2023-06-24T11:47:34;32.10;28.40
19403;DHT22;9837;48.888;8.998;2023-06-24T11:50:00;31.90;28.30
19403;DHT22;9837;48.888;8.998;2023-06-24T11:55:01;31.50;27.60
19403;DHT22;9837;48.888;8.998;2023-06-24T11:57:46;31.50;28.30
19403;DHT22;9837;48.888;8.998;2023-06-24T12:00:12;31.50;28.90
19403;DHT22;9837;48.888;8.998;2023-06-24T12:02:38;31.30;29.00
19403;DHT22;9837;48.888;8.998;2023-06-24T12:05:04;31.40;28.80
19403;DHT22;9837;48.888;8.998;2023-06-24T12:07:29;31.40;28.30
19403;DHT22;9837;48.888;8.998;2023-06-24T12:09:55;31.70;28.60
19403;DHT22;9837;48.888;8.998;2023-06-24T12:12:21;32.00;28.00
19403;DHT22;9837;48.888;8.998;2023-06-24T12:14:46;32.20;28.20
19403;DHT22;9837;48.888;8.998;2023-06-24T12:17:13;32.30;28.00
19403;DHT22;9837;48.888;8.998;2023-06-24T12:19:38;31.80;28.70
19403;DHT22;9837;48.888;8.998;2023-06-24T12:22:04;31.20;29.10
19403;DHT22;9837;48.888;8.998;2023-06-24T12:24:29;30.90;29.40
19403;DHT22;9837;48.888;8.998;2023-06-24T12:26:55;30.90;29.10
19403;DHT22;9837;48.888;8.998;2023-06-24T12:29:21;31.20;29.30
19403;DHT22;9837;48.888;8.998;2023-06-24T12:31:47;30.80;28.60
19403;DHT22;9837;48.888;8.998;2023-06-24T12:34:12;30.70;29.30
19403;DHT22;9837;48.888;8.998;2023-06-24T12:36:38;31.40;29.10
19403;DHT22;9837;48.888;8.998;2023-06-24T12:39:03;32.20;29.20
19403;DHT22;9837;48.888;8.998;2023-06-24T12:41:29;32.90;27.70
19403;DHT22;9837;48.888;8.998;2023-06-24T12:43:55;33.20;27.30
19403;DHT22;9837;48.888;8.998;2023-06-24T12:46:20;33.60;27.40
19403;DHT22;9837;48.888;8.998;2023-06-24T12:48:46;34.00;26.50
19403;DHT22;9837;48.888;8.998;2023-06-24T12:53:37;33.50;26.00
19403;DHT22;9837;48.888;8.998;2023-06-24T12:56:03;33.10;27.40
19403;DHT22;9837;48.888;8.998;2023-06-24T12:58:28;32.50;27.40
19403;DHT22;9837;48.888;8.998;2023-06-24T13:03:20;31.90;28.10
19403;DHT22;9837;48.888;8.998;2023-06-24T13:08:11;32.60;27.90
19403;DHT22;9837;48.888;8.998;2023-06-24T13:13:04;32.80;27.20
19403;DHT22;9837;48.888;8.998;2023-06-24T13:15:29;32.50;27.40
19403;DHT22;9837;48.888;8.998;2023-06-24T13:17:56;32.60;27.50
19403;DHT22;9837;48.888;8.998;2023-06-24T13:20:21;32.80;27.90
19403;DHT22;9837;48.888;8.998;2023-06-24T13:22:47;32.90;27.60
19403;DHT22;9837;48.888;8.998;2023-06-24T13:25:13;33.30;27.30
19403;DHT22;9837;48.888;8.998;2023-06-24T13:27:38;33.20;26.60
19403;DHT22;9837;48.888;8.998;2023-06-24T13:30:04;32.70;27.20
19403;DHT22;9837;48.888;8.998;2023-06-24T13:32:30;32.70;27.50
19403;DHT22;9837;48.888;8.998;2023-06-24T13:37:21;32.40;28.50
19403;DHT22;9837;48.888;8.998;2023-06-24T13:42:13;31.70;28.60
19403;DHT22;9837;48.888;8.998;2023-06-24T13:44:39;31.70;28.60
19403;DHT22;9837;48.888;8.998;2023-06-24T13:47:04;32.20;28.60
19403;DHT22;9837;48.888;8.998;2023-06-24T13:49:30;31.90;28.70
19403;DHT22;9837;48.888;8.998;2023-06-24T13:51:56;31.90;29.20
19403;DHT22;9837;48.888;8.998;2023-06-24T13:56:47;32.20;28.80
19403;DHT22;9837;48.888;8.998;2023-06-24T14:04:04;31.70;29.30
19403;DHT22;9837;48.888;8.998;2023-06-24T14:06:30;32.10;28.90
19403;DHT22;9837;48.888;8.998;2023-06-24T14:08:56;32.40;28.40
19403;DHT22;9837;48.888;8.998;2023-06-24T14:11:22;32.50;28.60
19403;DHT22;9837;48.888;8.998;2023-06-24T14:16:13;32.60;27.50
19403;DHT22;9837;48.888;8.998;2023-06-24T14:21:06;32.10;27.30
19403;DHT22;9837;48.888;8.998;2023-06-24T14:23:33;32.10;27.60
19403;DHT22;9837;48.888;8.998;2023-06-24T14:25:59;32.40;27.90
19403;DHT22;9837;48.888;8.998;2023-06-24T14:28:25;32.10;28.10
19403;DHT22;9837;48.888;8.998;2023-06-24T14:30:51;31.90;28.30
19403;DHT22;9837;48.888;8.998;2023-06-24T14:33:17;32.40;28.60
19403;DHT22;9837;48.888;8.998;2023-06-24T14:38:08;32.50;27.70
19403;DHT22;9837;48.888;8.998;2023-06-24T14:43:00;32.30;27.80
19403;DHT22;9837;48.888;8.998;2023-06-24T14:47:52;33.10;27.50
19403;DHT22;9837;48.888;8.998;2023-06-24T14:50:18;33.40;26.60
19403;DHT22;9837;48.888;8.998;2023-06-24T14:52:44;33.50;26.60
19403;DHT22;9837;48.888;8.998;2023-06-24T14:55:10;33.00;26.80
19403;DHT22;9837;48.888;8.998;2023-06-24T14:57:36;33.00;26.70
19403;DHT22;9837;48.888;8.998;2023-06-24T15:00:03;33.10;26.90
19403;DHT22;9837;48.888;8.998;2023-06-24T15:02:28;32.80;26.80
19403;DHT22;9837;48.888;8.998;2023-06-24T15:04:54;32.50;27.30
19403;DHT22;9837;48.888;8.998;2023-06-24T15:07:20;32.10;27.40
19403;DHT22;9837;48.888;8.998;2023-06-24T15:09:46;31.80;28.10
19403;DHT22;9837;48.888;8.998;2023-06-24T15:12:11;31.70;28.10
19403;DHT22;9837;48.888;8.998;2023-06-24T15:14:37;31.90;27.60
19403;DHT22;9837;48.888;8.998;2023-06-24T15:17:03;32.00;28.00
19403;DHT22;9837;48.888;8.998;2023-06-24T15:19:29;32.10;27.50
19403;DHT22;9837;48.888;8.998;2023-06-24T15:21:54;32.30;27.70
19403;DHT22;9837;48.888;8.998;2023-06-24T15:24:20;32.20;27.60
19403;DHT22;9837;48.888;8.998;2023-06-24T15:26:45;32.40;27.80
19403;DHT22;9837;48.888;8.998;2023-06-24T15:29:11;32.10;27.80
19403;DHT22;9837;48.888;8.998;2023-06-24T15:31:36;32.00;27.70
19403;DHT22;9837;48.888;8.998;2023-06-24T15:34:02;32.30;27.30
19403;DHT22;9837;48.888;8.998;2023-06-24T15:36:28;32.50;27.00
19403;DHT22;9837;48.888;8.998;2023-06-24T15:38:54;32.50;27.20
19403;DHT22;9837;48.888;8.998;2023-06-24T15:41:21;32.60;27.50
19403;DHT22;9837;48.888;8.998;2023-06-24T15:43:46;32.40;27.40
19403;DHT22;9837;48.888;8.998;2023-06-24T15:46:12;32.30;28.10
19403;DHT22;9837;48.888;8.998;2023-06-24T15:48:37;32.40;27.80
19403;DHT22;9837;48.888;8.998;2023-06-24T15:51:03;32.30;27.60
19403;DHT22;9837;48.888;8.998;2023-06-24T15:53:29;31.80;28.10
19403;DHT22;9837;48.888;8.998;2023-06-24T15:55:55;31.40;27.90
19403;DHT22;9837;48.888;8.998;2023-06-24T15:58:20;31.20;28.50
19403;DHT22;9837;48.888;8.998;2023-06-24T16:00:46;31.40;28.70
19403;DHT22;9837;48.888;8.998;2023-06-24T16:03:11;31.70;28.30
19403;DHT22;9837;48.888;8.998;2023-06-24T16:05:37;32.00;28.00
19403;DHT22;9837;48.888;8.998;2023-06-24T16:08:03;31.90;27.90
19403;DHT22;9837;48.888;8.998;2023-06-24T16:10:28;31.80;27.90
19403;DHT22;9837;48.888;8.998;2023-06-24T16:12:54;31.80;27.80
19403;DHT22;9837;48.888;8.998;2023-06-24T16:15:20;32.00;27.90
19403;DHT22;9837;48.888;8.998;2023-06-24T16:17:46;32.40;27.50
19403;DHT22;9837;48.888;8.998;2023-06-24T16:22:45;32.20;27.30
19403;DHT22;9837;48.888;8.998;2023-06-24T16:25:11;32.20;27.20
19403;DHT22;9837;48.888;8.998;2023-06-24T16:27:36;32.40;27.10
19403;DHT22;9837;48.888;8.998;2023-06-24T16:30:03;32.50;27.00
19403;DHT22;9837;48.888;8.998;2023-06-24T16:32:29;32.50;26.80
19403;DHT22;9837;48.888;8.998;2023-06-24T16:34:54;32.50;27.00
19403;DHT22;9837;48.888;8.998;2023-06-24T16:37:20;32.50;27.70
19403;DHT22;9837;48.888;8.998;2023-06-24T16:39:45;32.20;27.50
19403;DHT22;9837;48.888;8.998;2023-06-24T16:44:37;31.40;28.40
19403;DHT22;9837;48.888;8.998;2023-06-24T16:47:04;31.10;28.80
19403;DHT22;9837;48.888;8.998;2023-06-24T16:49:30;31.30;29.10
19403;DHT22;9837;48.888;8.998;2023-06-24T16:51:56;31.60;28.70
19403;DHT22;9837;48.888;8.998;2023-06-24T16:54:21;32.00;28.30
19403;DHT22;9837;48.888;8.998;2023-06-24T16:56:47;32.20;28.00
19403;DHT22;9837;48.888;8.998;2023-06-24T16:59:13;32.00;28.40
19403;DHT22;9837;48.888;8.998;2023-06-24T17:01:39;31.80;28.30
19403;DHT22;9837;48.888;8.998;2023-06-24T17:04:04;32.00;28.60
19403;DHT22;9837;48.888;8.998;2023-06-24T17:06:30;31.90;28.20
19403;DHT22;9837;48.888;8.998;2023-06-24T17:08:57;31.60;28.60
19403;DHT22;9837;48.888;8.998;2023-06-24T17:11:23;31.50;28.70
19403;DHT22;9837;48.888;8.998;2023-06-24T17:21:06;30.90;29.50
19403;DHT22;9837;48.888;8.998;2023-06-24T17:23:32;30.80;29.90
19403;DHT22;9837;48.888;8.998;2023-06-24T17:25:57;31.10;30.00
19403;DHT22;9837;48.888;8.998;2023-06-24T17:33:15;31.30;29.70
19403;DHT22;9837;48.888;8.998;2023-06-24T17:35:40;31.50;29.40
19403;DHT22;9837;48.888;8.998;2023-06-24T17:40:32;31.70;30.00
19403;DHT22;9837;48.888;8.998;2023-06-24T17:45:23;31.50;29.70
19403;DHT22;9837;48.888;8.998;2023-06-24T17:50:17;31.30;30.80
19403;DHT22;9837;48.888;8.998;2023-06-24T17:55:08;31.10;30.60
19403;DHT22;9837;48.888;8.998;2023-06-24T18:00:00;31.30;31.10
19403;DHT22;9837;48.888;8.998;2023-06-24T18:07:20;31.10;30.80
19403;DHT22;9837;48.888;8.998;2023-06-24T18:09:47;30.90;30.80
19403;DHT22;9837;48.888;8.998;2023-06-24T18:17:04;31.00;31.40
19403;DHT22;9837;48.888;8.998;2023-06-24T18:21:56;31.00;32.10
19403;DHT22;9837;48.888;8.998;2023-06-24T18:26:47;30.90;31.80
19403;DHT22;9837;48.888;8.998;2023-06-24T18:29:13;30.80;32.00
19403;DHT22;9837;48.888;8.998;2023-06-24T18:31:39;30.80;32.20
19403;DHT22;9837;48.888;8.998;2023-06-24T18:34:10;30.80;32.10
19403;DHT22;9837;48.888;8.998;2023-06-24T18:36:36;30.80;32.00
19403;DHT22;9837;48.888;8.998;2023-06-24T18:39:02;30.80;31.80
19403;DHT22;9837;48.888;8.998;2023-06-24T18:41:27;30.70;32.00
19403;DHT22;9837;48.888;8.998;2023-06-24T18:43:53;30.60;32.30
19403;DHT22;9837;48.888;8.998;2023-06-24T18:46:18;30.60;32.80
19403;DHT22;9837;48.888;8.998;2023-06-24T18:48:44;30.50;32.50
19403;DHT22;9837;48.888;8.998;2023-06-24T18:51:09;30.40;32.90
19403;DHT22;9837;48.888;8.998;2023-06-24T18:53:35;30.40;33.20
19403;DHT22;9837;48.888;8.998;2023-06-24T18:56:01;30.40;33.10
19403;DHT22;9837;48.888;8.998;2023-06-24T18:58:28;30.30;33.20
19403;DHT22;9837;48.888;8.998;2023-06-24T19:00:54;30.20;33.50
19403;DHT22;9837;48.888;8.998;2023-06-24T19:03:19;30.20;33.10
19403;DHT22;9837;48.888;8.998;2023-06-24T19:05:45;30.10;32.90
19403;DHT22;9837;48.888;8.998;2023-06-24T19:10:36;29.80;33.20